Time;durP1;ratioP1;P1;durP2;ratioP2;P2;SDS_P1;SDS_P2;PMS_P1;PMS_P2;Temp;Humidity;BMP_temperature;BMP_pressure;BME280_temperature;BME280_humidity;BME280_pressure;Samples;Min_cycle;Max_cycle;Signal;HPM_P1;HPM_P2
2021/07/12 00:00:09;;;;;;;;;;;17.50;99.90;;;;;;5053333;28;19917;-75
2021/07/12 00:02:34;;;;;;;;;;;17.50;99.90;;;;;;5054629;28;19926;-74
2021/07/12 00:05:00;;;;;;;;;;;17.30;99.90;;;;;;5054731;28;20433;-76
2021/07/12 00:07:25;;;;;;;;;;;17.20;99.90;;;;;;5054633;28;19904;-76
2021/07/12 00:09:51;;;;;;;;;;;17.10;99.90;;;;;;5054552;28;19904;-76
2021/07/12 00:12:18;;;;;;;;;;;17.20;99.90;;;;;;5054715;28;19904;-75
2021/07/12 00:14:44;;;;;;;;;;;17.30;99.90;;;;;;5054364;28;19905;-77
2021/07/12 00:17:10;;;;;;;;;;;17.10;99.90;;;;;;5054451;28;20411;-77
2021/07/12 00:19:35;;;;;;;;;;;17.00;99.90;;;;;;5054581;28;19909;-75
2021/07/12 00:22:01;;;;;;;;;;;16.90;99.90;;;;;;5054505;28;20003;-76
2021/07/12 00:24:27;;;;;;;;;;;16.90;99.90;;;;;;5054285;28;20369;-75
2021/07/12 00:26:52;;;;;;;;;;;16.90;99.90;;;;;;5054293;28;19905;-76
2021/07/12 00:29:18;;;;;;;;;;;16.90;99.90;;;;;;5054142;28;20309;-76
2021/07/12 00:31:43;;;;;;;;;;;16.70;99.90;;;;;;5054615;28;19951;-76
2021/07/12 00:34:09;;;;;;;;;;;16.90;99.90;;;;;;5054171;28;19904;-77
2021/07/12 00:36:35;;;;;;;;;;;17.00;99.90;;;;;;5054110;28;19909;-75
2021/07/12 00:39:00;;;;;;;;;;;17.00;99.90;;;;;;5052786;28;20003;-76
2021/07/12 00:41:26;;;;;;;;;;;17.00;99.90;;;;;;5053955;28;19905;-76
2021/07/12 00:43:52;;;;;;;;;;;17.00;99.90;;;;;;5053987;28;19905;-76
2021/07/12 00:46:17;;;;;;;;;;;17.00;99.90;;;;;;5053955;28;19911;-77
2021/07/12 00:48:43;;;;;;;;;;;16.90;99.90;;;;;;5054139;28;19905;-76
2021/07/12 00:51:09;;;;;;;;;;;17.00;99.90;;;;;;5053900;28;19911;-76
2021/07/12 00:53:35;;;;;;;;;;;16.90;99.90;;;;;;5053802;28;19940;-76
2021/07/12 00:56:01;;;;;;;;;;;17.00;99.90;;;;;;5053901;28;19913;-76
2021/07/12 00:58:27;;;;;;;;;;;17.00;99.90;;;;;;5053528;28;19904;-74
2021/07/12 01:00:57;;;;;;;;;;;16.80;99.90;;;;;;5053507;28;19916;-76
2021/07/12 01:03:22;;;;;;;;;;;16.50;99.90;;;;;;5052293;28;19908;-76
2021/07/12 01:05:49;;;;;;;;;;;16.50;99.90;;;;;;5053692;28;19912;-76
2021/07/12 01:08:15;;;;;;;;;;;16.60;99.90;;;;;;5053595;28;19908;-76
2021/07/12 01:10:41;;;;;;;;;;;16.60;99.90;;;;;;5053569;28;19999;-76
2021/07/12 01:13:22;;;;;;;;;;;16.70;99.90;;;;;;5053641;28;19999;-76
2021/07/12 01:15:55;;;;;;;;;;;16.90;99.90;;;;;;5053682;28;19909;-76
2021/07/12 01:18:24;;;;;;;;;;;16.90;99.90;;;;;;5051935;28;20003;-75
2021/07/12 01:21:09;;;;;;;;;;;16.70;99.90;;;;;;5053451;28;19905;-76
2021/07/12 01:23:53;;;;;;;;;;;16.80;99.90;;;;;;5053468;28;19908;-76
2021/07/12 01:26:34;;;;;;;;;;;16.90;99.90;;;;;;5053103;28;19905;-77
2021/07/12 01:29:02;;;;;;;;;;;16.80;99.90;;;;;;5053384;28;19931;-77
2021/07/12 01:31:46;;;;;;;;;;;16.60;99.90;;;;;;5053509;28;19919;-75
2021/07/12 01:34:17;;;;;;;;;;;16.40;99.90;;;;;;5053346;28;19959;-77
2021/07/12 01:36:56;;;;;;;;;;;16.50;99.90;;;;;;5053438;28;19912;-75
2021/07/12 01:39:27;;;;;;;;;;;16.60;99.90;;;;;;5053343;28;19904;-76
2021/07/12 01:42:12;;;;;;;;;;;16.50;99.90;;;;;;5053356;28;19932;-75
2021/07/12 01:44:40;;;;;;;;;;;16.30;99.90;;;;;;5051923;28;19905;-75
2021/07/12 01:47:11;;;;;;;;;;;16.10;99.90;;;;;;5053208;28;19905;-76
2021/07/12 01:49:37;;;;;;;;;;;16.10;99.90;;;;;;5051904;28;20292;-75
2021/07/12 01:52:11;;;;;;;;;;;16.40;99.90;;;;;;5051866;28;20003;-74
2021/07/12 01:54:52;;;;;;;;;;;16.60;99.90;;;;;;5053271;28;19905;-75
2021/07/12 01:57:21;;;;;;;;;;;16.70;99.90;;;;;;5053213;28;19905;-76
2021/07/12 01:59:56;;;;;;;;;;;16.90;99.90;;;;;;5052865;28;19917;-76
2021/07/12 02:02:27;;;;;;;;;;;16.80;99.90;;;;;;5053078;28;19916;-76
2021/07/12 02:04:54;;;;;;;;;;;16.60;99.90;;;;;;5052989;28;20438;-76
2021/07/12 02:07:20;;;;;;;;;;;16.60;99.90;;;;;;5051737;28;19908;-75
2021/07/12 02:09:47;;;;;;;;;;;16.70;99.90;;;;;;5053413;28;19911;-75
2021/07/12 02:12:13;;;;;;;;;;;16.60;99.90;;;;;;5052965;28;19904;-76
2021/07/12 02:14:39;;;;;;;;;;;16.50;99.90;;;;;;5053244;28;19956;-76
2021/07/12 02:17:06;;;;;;;;;;;16.60;99.90;;;;;;5052930;28;20396;-75
2021/07/12 02:19:32;;;;;;;;;;;16.60;99.90;;;;;;5052908;28;20435;-75
2021/07/12 02:21:59;;;;;;;;;;;16.50;99.90;;;;;;5052795;28;20006;-76
2021/07/12 02:24:25;;;;;;;;;;;16.80;99.90;;;;;;5052890;28;20379;-76
2021/07/12 02:26:51;;;;;;;;;;;16.90;99.90;;;;;;5052947;28;19909;-77
2021/07/12 02:29:18;;;;;;;;;;;17.00;99.90;;;;;;5052888;28;20372;-75
2021/07/12 02:31:44;;;;;;;;;;;16.90;99.90;;;;;;5052789;28;20034;-77
2021/07/12 02:34:10;;;;;;;;;;;16.50;99.90;;;;;;5053033;28;20361;-76
2021/07/12 02:36:36;;;;;;;;;;;16.30;99.90;;;;;;5051437;28;19905;-75
2021/07/12 02:39:03;;;;;;;;;;;16.10;99.90;;;;;;5055906;28;19912;-75
2021/07/12 02:41:29;;;;;;;;;;;16.10;99.90;;;;;;5054964;28;19904;-77
2021/07/12 02:43:55;;;;;;;;;;;16.20;99.90;;;;;;5056233;28;19915;-75
2021/07/12 02:46:22;;;;;;;;;;;16.40;99.90;;;;;;5056213;28;20004;-76
2021/07/12 02:48:48;;;;;;;;;;;16.30;99.90;;;;;;5056133;28;19905;-76
2021/07/12 02:51:15;;;;;;;;;;;16.40;99.90;;;;;;5056095;28;19905;-76
2021/07/12 02:53:53;;;;;;;;;;;16.40;99.90;;;;;;5056111;28;19908;-76
2021/07/12 02:56:18;;;;;;;;;;;16.50;99.90;;;;;;5056035;28;19987;-76
2021/07/12 02:58:45;;;;;;;;;;;16.80;99.90;;;;;;5056319;28;19982;-76
2021/07/12 03:01:11;;;;;;;;;;;17.00;99.90;;;;;;5055578;28;19927;-76
2021/07/12 03:03:36;;;;;;;;;;;17.20;99.90;;;;;;5055887;28;19908;-77
2021/07/12 03:06:11;;;;;;;;;;;17.30;99.90;;;;;;5054524;28;19905;-77
2021/07/12 03:08:54;;;;;;;;;;;17.10;99.90;;;;;;5056095;28;19999;-76
2021/07/12 03:11:24;;;;;;;;;;;17.10;99.90;;;;;;5055868;28;19912;-75
2021/07/12 03:13:50;;;;;;;;;;;17.10;99.90;;;;;;5055732;28;19905;-75
2021/07/12 03:16:16;;;;;;;;;;;17.10;99.90;;;;;;5055644;28;19911;-77
2021/07/12 03:18:45;;;;;;;;;;;17.10;99.90;;;;;;5055631;28;19911;-77
2021/07/12 03:21:11;;;;;;;;;;;17.20;99.90;;;;;;5054265;28;19909;-77
2021/07/12 03:23:44;;;;;;;;;;;17.30;99.90;;;;;;5054072;28;19909;-76
2021/07/12 03:26:10;;;;;;;;;;;17.30;99.90;;;;;;5055460;28;20012;-76
2021/07/12 03:28:36;;;;;;;;;;;17.20;99.90;;;;;;5055391;28;19919;-75
2021/07/12 03:31:02;;;;;;;;;;;17.00;99.90;;;;;;5055619;28;19905;-75
2021/07/12 03:33:30;;;;;;;;;;;16.80;99.90;;;;;;5054025;28;19907;-76
2021/07/12 03:35:55;;;;;;;;;;;16.80;99.90;;;;;;5053987;28;19927;-77
2021/07/12 03:38:21;;;;;;;;;;;17.10;99.90;;;;;;5055247;28;20380;-75
2021/07/12 03:40:47;;;;;;;;;;;17.30;99.90;;;;;;5055181;28;19912;-76
2021/07/12 03:43:14;;;;;;;;;;;17.10;99.90;;;;;;5055012;28;19909;-76
2021/07/12 03:45:41;;;;;;;;;;;17.10;99.90;;;;;;5055125;28;19999;-76
2021/07/12 03:48:07;;;;;;;;;;;17.20;99.90;;;;;;5054575;28;19964;-76
2021/07/12 03:50:33;;;;;;;;;;;17.30;99.90;;;;;;5053695;28;19905;-75
2021/07/12 03:53:01;;;;;;;;;;;17.30;99.90;;;;;;5054944;28;19904;-76
2021/07/12 03:55:28;;;;;;;;;;;17.30;99.90;;;;;;5054896;28;19943;-75
2021/07/12 03:57:54;;;;;;;;;;;17.20;99.90;;;;;;5054904;28;20408;-76
2021/07/12 04:00:21;;;;;;;;;;;17.20;99.90;;;;;;5054705;28;19940;-75
2021/07/12 04:02:47;;;;;;;;;;;17.10;99.90;;;;;;5054716;28;19908;-77
2021/07/12 04:05:13;;;;;;;;;;;17.20;99.90;;;;;;5054733;28;19912;-76
2021/07/12 04:07:39;;;;;;;;;;;17.30;99.90;;;;;;5054900;28;19904;-75
2021/07/12 04:10:06;;;;;;;;;;;17.40;99.90;;;;;;5054742;28;19911;-76
2021/07/12 04:12:32;;;;;;;;;;;17.50;99.90;;;;;;5054976;28;19904;-76
2021/07/12 04:14:58;;;;;;;;;;;17.50;99.90;;;;;;5053255;28;20288;-77
2021/07/12 04:17:24;;;;;;;;;;;17.40;99.90;;;;;;5054653;28;19985;-77
2021/07/12 04:19:50;;;;;;;;;;;17.20;99.90;;;;;;5054408;28;20376;-75
2021/07/12 04:22:16;;;;;;;;;;;17.20;99.90;;;;;;5052992;28;19909;-77
2021/07/12 04:24:42;;;;;;;;;;;17.40;99.90;;;;;;5054298;28;20015;-77
2021/07/12 04:27:07;;;;;;;;;;;17.40;99.90;;;;;;5054547;28;19908;-76
2021/07/12 04:29:33;;;;;;;;;;;17.40;99.90;;;;;;5052941;28;19909;-75
2021/07/12 04:32:00;;;;;;;;;;;17.30;99.90;;;;;;5054178;28;19905;-75
2021/07/12 04:34:29;;;;;;;;;;;17.40;99.90;;;;;;5054125;28;20347;-76
2021/07/12 04:36:55;;;;;;;;;;;17.50;99.90;;;;;;5054152;28;20391;-76
2021/07/12 04:39:21;;;;;;;;;;;17.60;99.90;;;;;;5052679;28;19909;-75
2021/07/12 04:41:46;;;;;;;;;;;17.50;99.90;;;;;;5053921;28;19914;-76
2021/07/12 04:44:12;;;;;;;;;;;17.50;99.90;;;;;;5054262;28;19905;-76
2021/07/12 04:46:37;;;;;;;;;;;17.50;99.90;;;;;;5054004;28;20047;-76
2021/07/12 04:49:03;;;;;;;;;;;17.50;99.90;;;;;;5053953;28;19905;-76
2021/07/12 04:51:29;;;;;;;;;;;17.50;99.90;;;;;;5053903;28;19905;-76
2021/07/12 04:53:55;;;;;;;;;;;17.50;99.90;;;;;;5053814;28;19928;-74
2021/07/12 04:56:20;;;;;;;;;;;17.50;99.90;;;;;;5053785;28;19909;-77
2021/07/12 04:58:47;;;;;;;;;;;17.50;99.90;;;;;;5053844;28;19911;-77
2021/07/12 05:01:13;;;;;;;;;;;17.40;99.90;;;;;;5051268;28;19917;-76
2021/07/12 05:03:40;;;;;;;;;;;17.20;99.90;;;;;;5053610;28;19915;-76
2021/07/12 05:06:06;;;;;;;;;;;17.20;99.90;;;;;;5053881;28;19905;-76
2021/07/12 05:08:31;;;;;;;;;;;17.20;99.90;;;;;;5053763;28;20323;-77
2021/07/12 05:10:57;;;;;;;;;;;17.20;99.90;;;;;;5052266;28;20007;-77
2021/07/12 05:13:23;;;;;;;;;;;17.30;99.90;;;;;;5053587;28;19927;-76
2021/07/12 05:15:48;;;;;;;;;;;17.30;99.90;;;;;;5053552;28;19906;-76
2021/07/12 05:18:14;;;;;;;;;;;17.30;99.90;;;;;;5053648;28;19945;-77
2021/07/12 05:20:40;;;;;;;;;;;17.20;99.90;;;;;;5053681;28;19939;-74
2021/07/12 05:23:05;;;;;;;;;;;17.20;99.90;;;;;;5053367;28;19970;-75
2021/07/12 05:25:31;;;;;;;;;;;17.00;99.90;;;;;;5052091;28;20316;-76
2021/07/12 05:27:57;;;;;;;;;;;16.90;99.90;;;;;;5053809;28;19911;-77
2021/07/12 05:30:22;;;;;;;;;;;16.90;99.90;;;;;;5053399;28;19905;-75
2021/07/12 05:32:48;;;;;;;;;;;16.90;99.90;;;;;;5053358;28;20018;-76
2021/07/12 05:35:14;;;;;;;;;;;16.90;99.90;;;;;;5052113;28;19920;-77
2021/07/12 05:37:40;;;;;;;;;;;16.90;99.90;;;;;;5053318;28;19911;-76
2021/07/12 05:40:06;;;;;;;;;;;16.90;99.90;;;;;;5053352;28;19905;-77
2021/07/12 05:42:32;;;;;;;;;;;16.80;99.90;;;;;;5053186;28;19909;-76
2021/07/12 05:44:58;;;;;;;;;;;16.80;99.90;;;;;;5053165;28;20444;-76
2021/07/12 05:47:24;;;;;;;;;;;16.80;99.90;;;;;;5053218;28;19905;-76
2021/07/12 05:49:49;;;;;;;;;;;16.60;99.90;;;;;;5053393;28;19905;-76
2021/07/12 05:52:15;;;;;;;;;;;16.60;99.90;;;;;;5053269;28;19963;-76
2021/07/12 05:54:41;;;;;;;;;;;16.70;99.90;;;;;;5053171;28;19909;-77
2021/07/12 05:57:06;;;;;;;;;;;16.70;99.90;;;;;;5053239;28;19912;-76
2021/07/12 05:59:32;;;;;;;;;;;16.60;99.90;;;;;;5052940;28;19912;-76
2021/07/12 06:01:58;;;;;;;;;;;16.60;99.90;;;;;;5053268;28;19913;-76
2021/07/12 06:04:23;;;;;;;;;;;16.70;99.90;;;;;;5053280;28;20276;-77
2021/07/12 06:06:49;;;;;;;;;;;16.70;99.90;;;;;;5053046;28;19905;-75
2021/07/12 06:09:14;;;;;;;;;;;16.70;99.90;;;;;;5053575;28;19909;-76
2021/07/12 06:11:40;;;;;;;;;;;16.70;99.90;;;;;;5054149;28;19912;-75
2021/07/12 06:14:06;;;;;;;;;;;16.70;99.90;;;;;;5055478;28;19948;-77
2021/07/12 06:16:31;;;;;;;;;;;16.70;99.90;;;;;;5055425;28;19926;-76
2021/07/12 06:18:57;;;;;;;;;;;16.70;99.90;;;;;;5056742;28;19959;-75
2021/07/12 06:21:23;;;;;;;;;;;16.70;99.90;;;;;;5056696;28;19998;-77
2021/07/12 06:23:48;;;;;;;;;;;16.70;99.90;;;;;;5056464;28;19909;-77
2021/07/12 06:26:14;;;;;;;;;;;16.60;99.90;;;;;;5056626;28;19908;-75
2021/07/12 06:28:40;;;;;;;;;;;16.70;99.90;;;;;;5056431;28;20321;-76
2021/07/12 06:31:05;;;;;;;;;;;16.70;99.90;;;;;;5056562;28;19905;-76
2021/07/12 06:33:31;;;;;;;;;;;16.70;99.90;;;;;;5055166;28;19909;-77
2021/07/12 06:35:56;;;;;;;;;;;16.90;99.90;;;;;;5056631;28;19904;-76
2021/07/12 06:38:22;;;;;;;;;;;16.90;99.90;;;;;;5056578;28;19905;-76
2021/07/12 06:40:48;;;;;;;;;;;16.80;99.90;;;;;;5056340;28;19955;-78
2021/07/12 06:43:14;;;;;;;;;;;16.80;99.90;;;;;;5056227;28;20327;-77
2021/07/12 06:45:39;;;;;;;;;;;16.90;99.90;;;;;;5056293;28;19905;-75
2021/07/12 06:48:05;;;;;;;;;;;16.80;99.90;;;;;;5056207;28;19911;-75
2021/07/12 06:50:31;;;;;;;;;;;16.90;99.90;;;;;;5056201;28;19913;-76
2021/07/12 06:52:57;;;;;;;;;;;16.90;99.90;;;;;;5056094;28;19904;-77
2021/07/12 06:55:22;;;;;;;;;;;17.00;99.90;;;;;;5054713;28;20399;-76
2021/07/12 06:57:48;;;;;;;;;;;17.10;99.90;;;;;;5056408;28;19931;-76
2021/07/12 07:00:14;;;;;;;;;;;17.20;99.90;;;;;;5055789;28;20438;-74
2021/07/12 07:02:40;;;;;;;;;;;17.30;99.90;;;;;;5055960;28;20284;-76
2021/07/12 07:05:08;;;;;;;;;;;17.30;99.90;;;;;;5055736;28;19905;-76
2021/07/12 07:07:34;;;;;;;;;;;17.10;99.90;;;;;;5055826;28;19973;-75
2021/07/12 07:10:01;;;;;;;;;;;17.20;99.90;;;;;;5055903;28;19969;-76
2021/07/12 07:12:26;;;;;;;;;;;17.30;99.90;;;;;;5054410;28;19911;-76
2021/07/12 07:14:52;;;;;;;;;;;17.40;99.90;;;;;;5055858;28;19905;-75
2021/07/12 07:17:18;;;;;;;;;;;17.50;99.90;;;;;;5055664;28;20412;-75
2021/07/12 07:19:44;;;;;;;;;;;17.60;99.90;;;;;;5055967;28;19974;-75
2021/07/12 07:22:09;;;;;;;;;;;17.80;99.90;;;;;;5055237;28;19908;-77
2021/07/12 07:24:35;;;;;;;;;;;18.10;99.90;;;;;;5054665;28;19909;-77
2021/07/12 07:27:00;;;;;;;;;;;18.20;99.60;;;;;;5055442;28;20042;-75
2021/07/12 07:29:26;;;;;;;;;;;18.20;99.40;;;;;;5055595;28;19904;-76
2021/07/12 07:31:52;;;;;;;;;;;18.00;99.90;;;;;;5055341;28;20369;-75
2021/07/12 07:34:17;;;;;;;;;;;18.00;99.90;;;;;;5055073;28;19911;-76
2021/07/12 07:36:43;;;;;;;;;;;18.00;99.90;;;;;;5055318;28;19905;-77
2021/07/12 07:39:08;;;;;;;;;;;18.00;99.60;;;;;;5054984;28;20387;-77
2021/07/12 07:41:36;;;;;;;;;;;18.00;99.20;;;;;;5055252;28;19904;-76
2021/07/12 07:44:05;;;;;;;;;;;18.10;99.80;;;;;;5053762;28;20288;-77
2021/07/12 07:46:31;;;;;;;;;;;18.00;99.70;;;;;;5055140;28;19974;-77
2021/07/12 07:48:57;;;;;;;;;;;18.00;99.70;;;;;;5055185;28;19951;-74
2021/07/12 07:51:23;;;;;;;;;;;17.90;99.40;;;;;;5055075;28;20277;-77
2021/07/12 07:53:48;;;;;;;;;;;17.60;99.90;;;;;;5055000;28;20384;-76
2021/07/12 07:56:14;;;;;;;;;;;17.40;99.90;;;;;;5055036;28;19998;-76
2021/07/12 07:58:40;;;;;;;;;;;17.10;99.90;;;;;;5054930;28;19904;-77
2021/07/12 08:01:05;;;;;;;;;;;17.00;99.90;;;;;;5054397;28;19920;-76
2021/07/12 08:03:31;;;;;;;;;;;16.80;99.90;;;;;;5053344;28;19920;-76
2021/07/12 08:05:56;;;;;;;;;;;16.80;99.90;;;;;;5054741;28;19940;-76
2021/07/12 08:08:22;;;;;;;;;;;16.70;99.90;;;;;;5054708;28;19913;-77
2021/07/12 08:10:48;;;;;;;;;;;16.90;99.90;;;;;;5054646;28;19954;-77
2021/07/12 08:13:13;;;;;;;;;;;17.10;99.90;;;;;;5054565;28;20444;-76
2021/07/12 08:15:39;;;;;;;;;;;17.10;99.90;;;;;;5054737;28;19954;-75
2021/07/12 08:18:06;;;;;;;;;;;17.20;99.90;;;;;;5054618;28;19936;-76
2021/07/12 08:20:31;;;;;;;;;;;17.20;99.90;;;;;;5054552;28;19908;-76
2021/07/12 08:22:57;;;;;;;;;;;17.10;99.90;;;;;;5054270;28;20449;-75
2021/07/12 08:25:23;;;;;;;;;;;17.10;99.90;;;;;;5054337;28;19905;-76
2021/07/12 08:27:49;;;;;;;;;;;17.20;99.90;;;;;;5054562;28;19908;-76
2021/07/12 08:30:15;;;;;;;;;;;17.60;99.90;;;;;;5054391;28;20334;-77
2021/07/12 08:32:41;;;;;;;;;;;18.00;99.60;;;;;;5054219;28;19909;-77
2021/07/12 08:35:08;;;;;;;;;;;18.20;98.40;;;;;;5054150;28;19928;-75
2021/07/12 08:37:33;;;;;;;;;;;18.50;98.30;;;;;;5054446;28;20038;-76
2021/07/12 08:39:59;;;;;;;;;;;19.10;96.40;;;;;;5054283;28;19974;-77
2021/07/12 08:42:25;;;;;;;;;;;19.40;96.30;;;;;;5054030;28;19909;-75
2021/07/12 08:44:51;;;;;;;;;;;20.00;96.00;;;;;;5054019;28;19908;-76
2021/07/12 08:47:17;;;;;;;;;;;21.60;94.30;;;;;;5054394;28;19927;-75
2021/07/12 08:49:42;;;;;;;;;;;22.40;92.20;;;;;;5053989;28;19919;-76
2021/07/12 08:52:08;;;;;;;;;;;22.70;90.40;;;;;;5053930;28;19908;-77
2021/07/12 08:54:33;;;;;;;;;;;22.80;89.40;;;;;;5053873;28;20373;-78
2021/07/12 08:56:59;;;;;;;;;;;22.40;90.40;;;;;;5053952;28;19936;-77
2021/07/12 08:59:39;;;;;;;;;;;22.40;89.70;;;;;;5053523;28;21180;-76
2021/07/12 09:02:12;;;;;;;;;;;23.70;87.70;;;;;;5052387;28;19913;-78
2021/07/12 09:04:41;;;;;;;;;;;24.20;85.60;;;;;;5053681;28;19904;-77
2021/07/12 09:07:10;;;;;;;;;;;24.50;83.20;;;;;;5053583;28;19920;-76
2021/07/12 09:09:36;;;;;;;;;;;24.90;83.00;;;;;;5053801;28;20430;-76
2021/07/12 09:12:08;;;;;;;;;;;24.80;80.00;;;;;;5053600;28;19912;-75
2021/07/12 09:14:39;;;;;;;;;;;24.50;78.80;;;;;;5053428;28;19933;-76
2021/07/12 09:17:05;;;;;;;;;;;25.00;79.10;;;;;;5068689;28;20320;-77
2021/07/12 09:19:32;;;;;;;;;;;25.10;75.10;;;;;;5053554;28;19911;-77
2021/07/12 09:22:03;;;;;;;;;;;25.20;76.00;;;;;;5053642;28;19911;-76
2021/07/12 09:24:31;;;;;;;;;;;25.40;75.20;;;;;;5053439;28;19905;-76
2021/07/12 09:26:58;;;;;;;;;;;24.80;74.90;;;;;;5053441;28;19905;-78
2021/07/12 09:29:28;;;;;;;;;;;24.70;76.90;;;;;;5053460;28;19904;-77
2021/07/12 09:31:54;;;;;;;;;;;24.20;77.50;;;;;;5053538;28;20376;-78
2021/07/12 09:34:20;;;;;;;;;;;24.00;76.30;;;;;;5053485;28;19904;-76
2021/07/12 09:36:46;;;;;;;;;;;23.80;79.20;;;;;;5053298;28;19991;-76
2021/07/12 09:39:32;;;;;;;;;;;23.50;79.70;;;;;;5053768;28;19935;-77
2021/07/12 09:42:01;;;;;;;;;;;23.40;78.90;;;;;;5051920;28;19905;-77
2021/07/12 09:44:28;;;;;;;;;;;23.20;79.20;;;;;;5053258;28;19912;-77
2021/07/12 09:46:54;;;;;;;;;;;23.40;78.70;;;;;;5054970;28;19905;-76
2021/07/12 09:49:22;;;;;;;;;;;23.70;78.10;;;;;;5057271;28;19904;-77
2021/07/12 09:51:51;;;;;;;;;;;23.90;77.60;;;;;;5057262;28;20371;-78
2021/07/12 09:54:24;;;;;;;;;;;24.10;75.00;;;;;;5057463;28;19962;-76
2021/07/12 09:56:51;;;;;;;;;;;23.90;77.30;;;;;;5057150;28;19905;-78
2021/07/12 09:59:17;;;;;;;;;;;24.30;76.60;;;;;;5056876;28;19905;-77
2021/07/12 10:01:47;;;;;;;;;;;24.50;73.70;;;;;;5057160;28;19908;-76
2021/07/12 10:04:13;;;;;;;;;;;24.80;74.10;;;;;;5057012;28;19909;-77
2021/07/12 10:06:40;;;;;;;;;;;24.50;68.90;;;;;;5056956;28;19962;-76
2021/07/12 10:09:06;;;;;;;;;;;24.70;71.40;;;;;;5056969;28;19944;-76
2021/07/12 10:11:31;;;;;;;;;;;25.60;69.80;;;;;;5056912;28;19909;-77
2021/07/12 10:13:57;;;;;;;;;;;26.30;65.00;;;;;;5056905;28;19991;-77
2021/07/12 10:16:23;;;;;;;;;;;27.00;63.70;;;;;;5056910;28;19912;-77
2021/07/12 10:18:49;;;;;;;;;;;27.30;62.20;;;;;;5056780;28;19912;-78
2021/07/12 10:21:15;;;;;;;;;;;27.30;61.30;;;;;;5056747;28;19909;-77
2021/07/12 10:23:40;;;;;;;;;;;27.80;61.40;;;;;;5056745;28;20373;-75
2021/07/12 10:26:06;;;;;;;;;;;27.90;57.50;;;;;;5055357;28;19966;-77
2021/07/12 10:28:38;;;;;;;;;;;29.10;58.50;;;;;;5056637;28;19948;-77
2021/07/12 10:31:24;;;;;;;;;;;29.40;54.50;;;;;;5056593;28;19904;-77
2021/07/12 10:33:50;;;;;;;;;;;29.30;53.90;;;;;;5056176;28;19912;-78
2021/07/12 10:36:34;;;;;;;;;;;29.10;55.00;;;;;;5056524;28;19908;-77
2021/07/12 10:38:59;;;;;;;;;;;30.30;52.40;;;;;;5056582;28;19992;-78
2021/07/12 10:41:29;;;;;;;;;;;30.30;51.90;;;;;;5056356;28;19948;-77
2021/07/12 10:44:00;;;;;;;;;;;30.80;50.50;;;;;;5056287;28;20249;-77
2021/07/12 10:46:32;;;;;;;;;;;30.40;48.20;;;;;;5071698;28;20292;-76
2021/07/12 10:48:58;;;;;;;;;;;29.90;49.00;;;;;;5056540;28;20300;-77
2021/07/12 10:51:30;;;;;;;;;;;29.90;48.80;;;;;;5056284;28;20288;-77
2021/07/12 10:54:12;;;;;;;;;;;30.50;47.50;;;;;;5056074;28;19908;-75
2021/07/12 10:56:54;;;;;;;;;;;30.50;47.20;;;;;;5054807;28;19905;-76
2021/07/12 10:59:24;;;;;;;;;;;29.20;49.00;;;;;;5053314;28;19912;-77
2021/07/12 11:01:50;;;;;;;;;;;28.50;50.00;;;;;;5056079;28;20361;-78
2021/07/12 11:04:33;;;;;;;;;;;28.00;52.50;;;;;;5056129;28;19915;-77
2021/07/12 11:06:59;;;;;;;;;;;27.40;52.20;;;;;;5056089;28;20357;-77
2021/07/12 11:09:44;;;;;;;;;;;26.50;54.70;;;;;;5055954;28;19905;-78
2021/07/12 11:12:27;;;;;;;;;;;25.60;57.70;;;;;;5055676;28;20427;-77
2021/07/12 11:15:12;;;;;;;;;;;24.90;60.60;;;;;;5055895;28;19904;-77
2021/07/12 11:17:54;;;;;;;;;;;24.90;60.70;;;;;;5055677;28;19912;-75
2021/07/12 11:20:39;;;;;;;;;;;25.30;60.50;;;;;;5054293;28;19905;-79
2021/07/12 11:23:05;;;;;;;;;;;26.30;58.80;;;;;;5055622;28;19911;-77
2021/07/12 11:25:38;;;;;;;;;;;27.20;54.80;;;;;;5055557;28;19904;-77
2021/07/12 11:28:09;;;;;;;;;;;28.20;52.90;;;;;;5055482;28;19905;-77
2021/07/12 11:30:35;;;;;;;;;;;29.30;52.50;;;;;;5054178;28;19909;-78
2021/07/12 11:33:02;;;;;;;;;;;31.00;47.80;;;;;;5055306;28;19917;-76
2021/07/12 11:35:27;;;;;;;;;;;30.70;47.00;;;;;;5055463;28;19905;-78
2021/07/12 11:38:00;;;;;;;;;;;31.30;44.90;;;;;;5070710;28;19905;-78
2021/07/12 11:40:25;;;;;;;;;;;31.40;43.50;;;;;;5053916;28;19911;-76
2021/07/12 11:42:51;;;;;;;;;;;31.80;43.90;;;;;;5055256;28;19909;-78
2021/07/12 11:45:23;;;;;;;;;;;32.70;41.20;;;;;;5055159;28;20269;-78
2021/07/12 11:47:55;;;;;;;;;;;33.30;40.60;;;;;;5070224;28;19905;-78
2021/07/12 11:50:22;;;;;;;;;;;33.70;41.30;;;;;;5070396;28;19996;-77
2021/07/12 11:52:54;;;;;;;;;;;32.00;41.00;;;;;;5055083;28;19916;-77
2021/07/12 11:55:31;;;;;;;;;;;30.90;43.30;;;;;;5054984;28;19904;-77
2021/07/12 11:58:01;;;;;;;;;;;30.10;44.50;;;;;;5055036;28;19909;-76
2021/07/12 12:00:30;;;;;;;;;;;29.70;45.10;;;;;;5053375;28;19963;-77
2021/07/12 12:02:57;;;;;;;;;;;29.70;46.50;;;;;;5054854;28;19904;-76
2021/07/12 12:05:23;;;;;;;;;;;30.10;45.20;;;;;;5054935;28;19991;-76
2021/07/12 12:07:49;;;;;;;;;;;30.50;44.50;;;;;;5054788;28;19987;-77
2021/07/12 12:10:20;;;;;;;;;;;30.10;43.70;;;;;;5054349;28;19908;-77
2021/07/12 12:12:53;;;;;;;;;;;30.20;44.10;;;;;;5055007;28;19915;-77
2021/07/12 12:15:20;;;;;;;;;;;30.10;43.80;;;;;;5054639;28;19993;-78
2021/07/12 12:17:48;;;;;;;;;;;29.70;45.00;;;;;;5054463;28;19935;-76
2021/07/12 12:20:19;;;;;;;;;;;30.30;43.90;;;;;;5054544;28;19905;-76
2021/07/12 12:22:55;;;;;;;;;;;31.20;42.30;;;;;;5054359;28;19905;-77
2021/07/12 12:25:20;;;;;;;;;;;31.30;42.60;;;;;;5054423;28;19904;-77
2021/07/12 12:27:46;;;;;;;;;;;32.00;41.50;;;;;;5054343;28;19905;-78
2021/07/12 12:30:12;;;;;;;;;;;31.50;42.20;;;;;;5069636;28;19954;-78
2021/07/12 12:32:38;;;;;;;;;;;32.60;40.90;;;;;;5054393;28;19947;-77
2021/07/12 12:35:05;;;;;;;;;;;33.10;40.40;;;;;;5054243;28;19912;-78
2021/07/12 12:37:40;;;;;;;;;;;33.00;40.50;;;;;;5069591;28;19905;-78
2021/07/12 12:40:18;;;;;;;;;;;33.90;40.10;;;;;;5052859;28;19905;-77
2021/07/12 12:42:44;;;;;;;;;;;34.00;39.30;;;;;;5054113;28;19904;-77
2021/07/12 12:45:10;;;;;;;;;;;34.40;38.90;;;;;;5054482;28;19911;-78
2021/07/12 12:47:36;;;;;;;;;;;35.20;37.70;;;;;;5054264;28;20369;-77
2021/07/12 12:50:15;;;;;;;;;;;35.80;37.30;;;;;;5052649;28;20311;-77
2021/07/12 12:52:40;;;;;;;;;;;36.70;35.70;;;;;;5052563;28;19934;-77
2021/07/12 12:55:10;;;;;;;;;;;35.70;36.30;;;;;;5054137;28;20364;-78
2021/07/12 12:57:37;;;;;;;;;;;34.40;37.00;;;;;;5052605;28;19954;-78
2021/07/12 13:00:07;;;;;;;;;;;33.40;38.50;;;;;;5053799;28;19916;-77
2021/07/12 13:02:36;;;;;;;;;;;32.90;38.90;;;;;;5053872;28;19912;-77
2021/07/12 13:05:06;;;;;;;;;;;32.70;41.00;;;;;;5052417;28;19927;-76
2021/07/12 13:07:41;;;;;;;;;;;32.70;39.40;;;;;;5053850;28;19915;-77
2021/07/12 13:10:08;;;;;;;;;;;32.90;38.90;;;;;;5053911;28;20281;-79
2021/07/12 13:12:41;;;;;;;;;;;32.60;39.80;;;;;;5053516;28;19908;-76
2021/07/12 13:15:08;;;;;;;;;;;33.50;38.00;;;;;;5053845;28;19904;-76
2021/07/12 13:17:35;;;;;;;;;;;33.70;39.10;;;;;;5053741;28;19905;-77
2021/07/12 13:20:06;;;;;;;;;;;34.10;36.70;;;;;;5053595;28;20392;-77
2021/07/12 13:22:33;;;;;;;;;;;33.80;36.20;;;;;;5052693;28;20007;-78
2021/07/12 13:25:05;;;;;;;;;;;34.00;36.90;;;;;;5053424;28;19912;-77
2021/07/12 13:27:38;;;;;;;;;;;34.00;37.20;;;;;;5053869;28;19905;-77
2021/07/12 13:30:06;;;;;;;;;;;34.50;37.70;;;;;;5053639;28;19905;-77
2021/07/12 13:32:32;;;;;;;;;;;34.60;38.20;;;;;;5053358;28;19920;-77
2021/07/12 13:34:59;;;;;;;;;;;34.10;37.50;;;;;;5053384;28;19904;-77
2021/07/12 13:37:25;;;;;;;;;;;34.30;37.60;;;;;;5053360;28;19904;-78
2021/07/12 13:39:50;;;;;;;;;;;33.40;40.20;;;;;;5053481;28;20340;-78
2021/07/12 13:42:16;;;;;;;;;;;33.60;39.10;;;;;;5053493;28;19932;-76
2021/07/12 13:44:42;;;;;;;;;;;32.90;39.30;;;;;;5053317;28;19909;-78
2021/07/12 13:47:09;;;;;;;;;;;31.90;40.30;;;;;;5053210;28;20007;-76
2021/07/12 13:49:34;;;;;;;;;;;31.70;40.00;;;;;;5053606;28;19964;-78
2021/07/12 13:52:00;;;;;;;;;;;33.90;39.60;;;;;;5053138;28;19951;-78
2021/07/12 13:54:26;;;;;;;;;;;34.40;38.20;;;;;;5053237;28;19904;-75
2021/07/12 13:56:51;;;;;;;;;;;34.70;37.70;;;;;;5053190;28;19908;-77
2021/07/12 13:59:17;;;;;;;;;;;35.90;37.10;;;;;;5052946;28;19975;-77
2021/07/12 14:01:45;;;;;;;;;;;36.20;37.00;;;;;;5053310;28;19904;-77
2021/07/12 14:04:11;;;;;;;;;;;34.10;36.90;;;;;;5053234;28;19912;-76
2021/07/12 14:06:37;;;;;;;;;;;32.00;38.50;;;;;;5053632;28;19905;-76
2021/07/12 14:09:03;;;;;;;;;;;30.00;41.50;;;;;;5052946;28;19905;-76
2021/07/12 14:11:29;;;;;;;;;;;29.60;42.20;;;;;;5052952;28;20368;-76
2021/07/12 14:13:54;;;;;;;;;;;29.50;42.30;;;;;;5052667;28;19908;-75
2021/07/12 14:16:24;;;;;;;;;;;32.40;41.10;;;;;;5053125;28;19905;-77
2021/07/12 14:18:50;;;;;;;;;;;30.60;41.20;;;;;;5051610;28;19905;-76